createdAt,value
2023-02-12T00:01:19.169Z,61.92
2023-02-12T00:03:46.512Z,63.25
2023-02-12T00:06:16.061Z,67.20
2023-02-12T00:08:47.238Z,59.67
2023-02-12T00:11:18.171Z,65.60
2023-02-12T00:13:46.477Z,59.28
2023-02-12T00:16:16.967Z,59.35
2023-02-12T00:18:45.945Z,60.13
2023-02-12T00:21:15.458Z,68.90
2023-02-12T00:23:42.806Z,60.90
2023-02-12T00:26:15.526Z,59.17
2023-02-12T00:28:43.472Z,60.20
2023-02-12T00:31:14.655Z,59.70
2023-02-12T00:33:42.648Z,59.97
2023-02-12T00:36:14.691Z,66.55
2023-02-12T00:38:42.262Z,64.38
2023-02-12T00:41:11.577Z,63.30
2023-02-12T00:43:39.180Z,60.50
2023-02-12T00:46:08.000Z,67.18
2023-02-12T00:48:36.393Z,61.85
2023-02-12T00:51:05.287Z,64.82
2023-02-12T00:53:33.684Z,61.70
2023-02-12T00:56:01.681Z,68.78
2023-02-12T00:58:30.257Z,62.28
2023-02-12T01:00:57.616Z,63.92
2023-02-12T01:03:25.957Z,63.70
2023-02-12T01:05:55.067Z,58.80
2023-02-12T01:08:23.568Z,65.07
2023-02-12T01:11:01.139Z,61.33
2023-02-12T01:13:30.669Z,69.50
2023-02-12T01:16:14.894Z,74.53
2023-02-12T01:18:43.950Z,64.03
2023-02-12T01:21:16.716Z,66.18
2023-02-12T01:23:44.825Z,69.57
2023-02-12T01:26:14.422Z,66.35
2023-02-12T01:28:44.421Z,72.18
2023-02-12T01:31:17.077Z,62.83
2023-02-12T01:33:48.594Z,71.80
2023-02-12T01:36:19.207Z,62.40
2023-02-12T01:38:47.878Z,67.20
2023-02-12T01:41:20.209Z,66.78
2023-02-12T01:44:06.087Z,62.28
2023-02-12T01:46:34.361Z,67.27
2023-02-12T01:49:04.400Z,70.30
2023-02-12T01:51:33.478Z,69.88
2023-02-12T01:54:05.675Z,73.03
2023-02-12T01:56:34.907Z,59.22
2023-02-12T01:59:02.931Z,69.70
2023-02-12T02:01:33.741Z,72.15
2023-02-12T02:04:08.186Z,67.82
2023-02-12T02:06:45.374Z,69.35
2023-02-12T02:09:14.642Z,66.22
2023-02-12T02:12:01.862Z,67.63
2023-02-12T02:14:33.004Z,78.65
2023-02-12T02:17:16.106Z,69.30
2023-02-12T02:20:09.806Z,62.13
2023-02-12T02:22:42.396Z,68.78
2023-02-12T02:25:46.262Z,72.00
2023-02-12T02:28:29.453Z,80.70
2023-02-12T02:31:06.485Z,73.60
2023-02-12T02:33:39.282Z,80.68
2023-02-12T02:36:14.657Z,66.60
2023-02-12T02:39:01.812Z,67.45
2023-02-12T02:41:33.671Z,75.65
2023-02-12T02:44:09.198Z,69.78
2023-02-12T02:46:48.243Z,83.03
2023-02-12T02:49:23.971Z,78.70
2023-02-12T02:51:57.162Z,78.35
2023-02-12T02:54:34.803Z,78.70
2023-02-12T02:57:13.729Z,77.50
2023-02-12T02:59:46.870Z,78.50
2023-02-12T03:02:24.104Z,72.47
2023-02-12T03:05:01.361Z,79.18
2023-02-12T03:07:33.775Z,86.38
2023-02-12T03:10:10.365Z,75.47
2023-02-12T03:12:46.043Z,77.75
2023-02-12T03:15:30.127Z,76.85
2023-02-12T03:18:01.373Z,74.35
2023-02-12T03:20:33.631Z,75.65
2023-02-12T03:23:09.157Z,82.75
2023-02-12T03:25:45.207Z,80.73
2023-02-12T03:28:21.269Z,77.95
2023-02-12T03:31:00.231Z,74.22
2023-02-12T03:33:59.228Z,78.40
2023-02-12T03:36:31.796Z,75.05
2023-02-12T03:39:08.959Z,80.35
2023-02-12T03:41:58.711Z,76.57
2023-02-12T03:44:42.678Z,74.22
2023-02-12T03:47:19.776Z,77.22
2023-02-12T03:50:09.740Z,78.80
2023-02-12T03:52:38.050Z,79.43
2023-02-12T03:55:07.140Z,75.82
2023-02-12T03:57:41.615Z,85.95
2023-02-12T04:00:18.984Z,83.28
2023-02-12T04:02:48.038Z,79.07
2023-02-12T04:05:26.807Z,84.47
2023-02-12T04:07:56.752Z,86.07
2023-02-12T04:10:36.905Z,79.78
2023-02-12T04:13:21.586Z,80.70
2023-02-12T04:16:04.856Z,80.88
2023-02-12T04:18:47.244Z,82.75
2023-02-12T04:21:16.910Z,81.00
2023-02-12T04:23:44.839Z,71.22
2023-02-12T04:26:25.623Z,82.00
2023-02-12T04:29:05.567Z,86.40
2023-02-12T04:31:38.430Z,78.18
2023-02-12T04:34:14.594Z,79.95
2023-02-12T04:36:53.620Z,83.50
2023-02-12T04:39:26.166Z,79.13
2023-02-12T04:41:54.651Z,86.32
2023-02-12T04:44:28.251Z,78.90
2023-02-12T04:46:55.974Z,90.50
2023-02-12T04:49:24.773Z,72.25
2023-02-12T04:51:52.127Z,84.38
2023-02-12T04:54:20.868Z,76.18
2023-02-12T04:56:48.422Z,84.13
2023-02-12T04:59:17.244Z,69.07
2023-02-12T05:01:46.097Z,78.80
2023-02-12T05:04:16.463Z,71.85
2023-02-12T05:06:45.722Z,74.55
2023-02-12T05:09:17.799Z,77.88
2023-02-12T05:11:46.203Z,73.20
2023-02-12T05:14:14.586Z,76.10
2023-02-12T05:16:42.454Z,84.05
2023-02-12T05:19:10.086Z,79.53
2023-02-12T05:21:39.591Z,74.90
2023-02-12T05:24:07.894Z,75.53
2023-02-12T05:26:35.497Z,73.80
2023-02-12T05:29:04.270Z,79.43
2023-02-12T05:31:32.300Z,79.05
2023-02-12T05:33:59.951Z,77.68
2023-02-12T05:36:30.620Z,85.75
2023-02-12T05:38:59.942Z,81.57
2023-02-12T05:41:29.387Z,97.30
2023-02-12T05:43:56.704Z,96.60
2023-02-12T05:46:24.430Z,93.00
2023-02-12T05:48:53.105Z,103.78
2023-02-12T05:51:25.902Z,94.53
2023-02-12T05:53:58.976Z,98.32
2023-02-12T05:56:30.433Z,96.30
2023-02-12T05:59:02.463Z,107.50
2023-02-12T06:01:34.517Z,100.35
2023-02-12T06:04:03.509Z,103.35
2023-02-12T06:06:32.206Z,105.65
2023-02-12T06:09:01.748Z,110.10
2023-02-12T06:11:29.952Z,112.03
2023-02-12T06:13:58.434Z,116.03
2023-02-12T06:16:28.537Z,117.25
2023-02-12T06:18:57.100Z,115.03
2023-02-12T06:21:26.936Z,104.82
2023-02-12T06:23:54.159Z,117.45
2023-02-12T06:26:22.326Z,112.63
2023-02-12T06:28:51.257Z,109.75
2023-02-12T06:31:26.246Z,107.20
2023-02-12T06:33:57.033Z,111.97
2023-02-12T06:36:26.290Z,117.35
2023-02-12T06:38:53.535Z,106.60
2023-02-12T06:41:22.678Z,107.85
2023-02-12T06:43:50.080Z,116.90
2023-02-12T06:46:18.127Z,127.65
2023-02-12T06:48:47.502Z,121.25
2023-02-12T06:51:17.702Z,125.22
2023-02-12T06:53:46.167Z,110.03
2023-02-12T06:56:15.547Z,119.50
2023-02-12T06:58:47.207Z,129.15
2023-02-12T07:01:19.022Z,117.32
2023-02-12T07:03:54.448Z,125.10
2023-02-12T07:06:22.572Z,122.70
2023-02-12T07:08:50.938Z,123.18
2023-02-12T07:11:19.964Z,110.05
2023-02-12T07:13:47.862Z,123.47
2023-02-12T07:16:16.689Z,123.28
2023-02-12T07:18:45.758Z,113.78
2023-02-12T07:21:15.707Z,124.35
2023-02-12T07:23:47.950Z,115.30
2023-02-12T07:26:18.678Z,126.78
2023-02-12T07:28:47.634Z,132.30
2023-02-12T07:31:20.263Z,134.52
2023-02-12T07:33:48.905Z,138.82
2023-02-12T07:36:19.993Z,132.32
2023-02-12T07:38:49.632Z,151.45
2023-02-12T07:41:21.320Z,130.05
2023-02-12T07:43:52.990Z,128.93
2023-02-12T07:46:27.300Z,120.38
2023-02-12T07:48:54.558Z,132.60
2023-02-12T07:51:23.459Z,127.82
2023-02-12T07:53:51.637Z,132.48
2023-02-12T07:56:23.544Z,136.77
2023-02-12T07:58:52.888Z,132.70
2023-02-12T08:01:23.940Z,129.68
2023-02-12T08:03:53.227Z,124.10
2023-02-12T08:06:24.080Z,123.75
2023-02-12T08:08:57.819Z,142.15
2023-02-12T08:11:29.545Z,130.95
2023-02-12T08:13:58.398Z,138.90
2023-02-12T08:16:29.890Z,138.07
2023-02-12T08:19:10.531Z,132.57
2023-02-12T08:21:44.963Z,127.88
2023-02-12T08:24:13.772Z,132.70
2023-02-12T08:26:41.372Z,135.60
2023-02-12T08:29:14.591Z,141.05
2023-02-12T08:31:46.015Z,133.23
2023-02-12T08:34:23.487Z,130.32
2023-02-12T08:36:55.374Z,134.38
2023-02-12T08:39:25.310Z,139.35
2023-02-12T08:41:56.322Z,142.65
2023-02-12T08:44:25.878Z,132.63
2023-02-12T08:46:56.535Z,158.05
2023-02-12T08:49:27.946Z,141.35
2023-02-12T08:51:58.038Z,153.07
2023-02-12T08:54:27.850Z,146.35
2023-02-12T08:56:58.333Z,149.57
2023-02-12T08:59:26.800Z,142.20
2023-02-12T09:01:55.229Z,143.27
2023-02-12T09:04:26.953Z,145.68
2023-02-12T09:06:56.334Z,149.75
2023-02-12T09:09:24.218Z,134.57
2023-02-12T09:11:54.099Z,141.23
2023-02-12T09:14:25.508Z,136.73
2023-02-12T09:16:53.865Z,138.73
2023-02-12T09:19:21.231Z,134.90
2023-02-12T09:21:55.850Z,140.00
2023-02-12T09:24:28.320Z,148.13
2023-02-12T09:26:55.600Z,133.07
2023-02-12T09:29:24.363Z,142.30
2023-02-12T09:31:52.343Z,139.70
2023-02-12T09:34:19.577Z,146.45
2023-02-12T09:36:50.077Z,142.68
2023-02-12T09:39:19.037Z,152.93
2023-02-12T09:42:03.864Z,155.43
2023-02-12T09:44:50.562Z,154.80
2023-02-12T09:47:32.141Z,150.32
2023-02-12T09:50:21.082Z,171.13
2023-02-12T09:52:49.455Z,153.23
2023-02-12T09:55:20.031Z,135.63
2023-02-12T09:57:49.090Z,146.48
2023-02-12T10:00:32.137Z,142.18
2023-02-12T10:03:05.888Z,147.65
2023-02-12T10:05:41.694Z,137.85
2023-02-12T10:08:24.572Z,145.00
2023-02-12T10:10:59.197Z,133.30
2023-02-12T10:13:48.713Z,126.88
2023-02-12T10:16:19.384Z,147.93
2023-02-12T10:19:18.034Z,131.27
2023-02-12T10:22:13.956Z,124.38
2023-02-12T10:25:03.317Z,135.50
2023-02-12T10:27:56.147Z,130.73
2023-02-12T10:30:30.075Z,133.45
2023-02-12T10:33:05.287Z,131.00
2023-02-12T10:35:36.224Z,126.28
2023-02-12T10:38:22.960Z,120.70
2023-02-12T10:40:51.522Z,125.45
2023-02-12T10:43:19.241Z,132.15
2023-02-12T10:45:49.538Z,121.45
2023-02-12T10:48:22.438Z,118.93
2023-02-12T10:51:25.754Z,120.50
2023-02-12T10:53:56.059Z,112.50
2023-02-12T10:56:27.138Z,124.47
2023-02-12T10:59:01.118Z,119.38
2023-02-12T11:01:31.273Z,119.53
2023-02-12T11:04:02.969Z,107.57
2023-02-12T11:06:33.426Z,110.50
2023-02-12T11:09:02.586Z,112.95
2023-02-12T11:11:31.697Z,119.40
2023-02-12T11:14:18.814Z,116.30
2023-02-12T11:16:55.741Z,109.80
2023-02-12T11:19:27.462Z,121.05
2023-02-12T11:22:07.896Z,122.82
2023-02-12T11:24:37.562Z,126.88
2023-02-12T11:27:24.993Z,114.13
2023-02-12T11:30:18.015Z,115.28
2023-02-12T11:32:48.525Z,116.90
2023-02-12T11:35:24.683Z,100.97
2023-02-12T11:37:57.878Z,107.53
2023-02-12T11:40:34.929Z,109.63
2023-02-12T11:43:08.928Z,110.95
2023-02-12T11:45:46.388Z,105.15
2023-02-12T11:48:23.072Z,107.53
2023-02-12T11:50:54.844Z,93.47
2023-02-12T11:53:29.046Z,93.57
2023-02-12T11:56:03.047Z,99.40
2023-02-12T11:58:32.313Z,100.85
2023-02-12T12:01:25.088Z,89.80
2023-02-12T12:04:08.950Z,103.53
2023-02-12T12:06:59.054Z,93.05
2023-02-12T12:09:37.507Z,93.93
2023-02-12T12:12:24.990Z,86.93
2023-02-12T12:15:19.668Z,87.85
2023-02-12T12:18:12.649Z,88.97
2023-02-12T12:21:02.881Z,94.13
2023-02-12T12:23:43.812Z,92.20
2023-02-12T12:26:23.523Z,98.07
2023-02-12T12:29:07.260Z,95.55
2023-02-12T12:31:45.708Z,94.95
2023-02-12T12:34:19.704Z,94.13
2023-02-12T12:37:19.738Z,94.80
2023-02-12T12:39:49.085Z,88.15
2023-02-12T12:42:35.937Z,89.57
2023-02-12T12:45:19.986Z,81.22
2023-02-12T12:48:26.175Z,89.53
2023-02-12T12:50:56.727Z,83.45
2023-02-12T12:53:41.727Z,84.95
2023-02-12T12:56:30.797Z,77.97
2023-02-12T12:59:17.548Z,73.95
2023-02-12T13:01:46.539Z,75.30
2023-02-12T13:04:43.879Z,73.45
2023-02-12T13:07:20.082Z,76.18
2023-02-12T13:10:00.852Z,91.03
2023-02-12T13:12:59.200Z,77.55
2023-02-12T13:15:46.921Z,74.70
2023-02-12T13:18:23.328Z,75.72
2023-02-12T13:20:57.317Z,75.07
2023-02-12T13:23:45.474Z,78.35
2023-02-12T13:26:37.927Z,73.70
2023-02-12T13:29:30.148Z,75.15
2023-02-12T13:32:07.467Z,72.90
2023-02-12T13:34:37.563Z,71.05
2023-02-12T13:37:18.846Z,70.68
2023-02-12T13:39:49.964Z,72.53
2023-02-12T13:42:41.430Z,75.60
2023-02-12T13:45:26.200Z,72.63
2023-02-12T13:48:06.821Z,62.92
2023-02-12T13:50:50.651Z,65.25
2023-02-12T13:53:34.828Z,66.38
2023-02-12T13:56:21.431Z,70.03
2023-02-12T13:58:53.256Z,59.97
2023-02-12T14:01:48.081Z,61.72
2023-02-12T14:04:31.496Z,60.20
2023-02-12T14:07:11.303Z,56.33
2023-02-12T14:09:45.820Z,58.88
2023-02-12T14:12:14.836Z,57.97
2023-02-12T14:14:49.115Z,60.78
2023-02-12T14:17:33.895Z,59.42
2023-02-12T14:20:23.911Z,63.40
2023-02-12T14:22:52.229Z,57.40
2023-02-12T14:25:40.099Z,61.00
2023-02-12T14:28:21.948Z,56.67
2023-02-12T14:31:26.356Z,61.08
2023-02-12T14:34:16.999Z,60.25
2023-02-12T14:36:50.293Z,57.55
2023-02-12T14:39:30.579Z,59.60
2023-02-12T14:42:14.013Z,58.60
2023-02-12T14:44:58.137Z,56.25
2023-02-12T14:47:47.082Z,64.95
2023-02-12T14:50:27.857Z,60.72
2023-02-12T14:53:06.429Z,64.93
2023-02-12T14:55:37.207Z,58.85
2023-02-12T14:58:17.124Z,57.03
2023-02-12T15:00:50.099Z,65.03
2023-02-12T15:03:30.910Z,59.88
2023-02-12T15:06:06.079Z,61.40
2023-02-12T15:08:58.962Z,64.55
2023-02-12T15:11:51.232Z,58.40
2023-02-12T15:14:37.749Z,57.53
2023-02-12T15:17:12.792Z,54.78
2023-02-12T15:20:00.368Z,48.10
2023-02-12T15:22:42.450Z,48.50
2023-02-12T15:25:28.195Z,51.75
2023-02-12T15:28:04.922Z,50.30
2023-02-12T15:30:36.805Z,53.28
2023-02-12T15:33:08.787Z,57.22
2023-02-12T15:35:40.554Z,54.67
2023-02-12T15:38:10.081Z,61.15
2023-02-12T15:40:38.630Z,55.33
2023-02-12T15:43:18.791Z,66.47
2023-02-12T15:45:54.503Z,71.13
2023-02-12T15:48:29.545Z,71.85
2023-02-12T15:51:22.237Z,67.57
2023-02-12T15:53:51.205Z,64.97
2023-02-12T15:56:23.702Z,65.72
2023-02-12T15:58:55.682Z,65.05
2023-02-12T16:01:31.497Z,66.88
2023-02-12T16:04:04.359Z,57.53
2023-02-12T16:06:35.780Z,66.93
2023-02-12T16:09:29.785Z,84.55
2023-02-12T16:12:01.673Z,57.45
2023-02-12T16:14:47.373Z,57.50
2023-02-12T16:17:27.695Z,59.30
2023-02-12T16:20:07.564Z,62.15
2023-02-12T16:22:41.466Z,56.78
2023-02-12T16:25:21.727Z,60.85
2023-02-12T16:27:58.351Z,60.60
2023-02-12T16:30:30.260Z,64.25
2023-02-12T16:32:59.080Z,59.05
2023-02-12T16:35:29.915Z,57.80
2023-02-12T16:38:32.286Z,59.40
2023-02-12T16:41:25.294Z,60.78
2023-02-12T16:44:27.281Z,52.53
2023-02-12T16:46:57.910Z,54.00
2023-02-12T16:49:27.937Z,58.80
2023-02-12T16:52:20.711Z,62.53
2023-02-12T16:54:49.070Z,62.92
2023-02-12T16:57:16.710Z,60.05
2023-02-12T16:59:46.099Z,60.50
2023-02-12T17:02:16.108Z,70.45
2023-02-12T17:04:43.768Z,58.83
2023-02-12T17:07:22.953Z,70.80
2023-02-12T17:09:50.708Z,71.88
2023-02-12T17:12:19.470Z,62.85
2023-02-12T17:14:50.053Z,59.78
2023-02-12T17:17:19.342Z,61.15
2023-02-12T17:19:48.281Z,69.22
2023-02-12T17:22:22.947Z,60.78
2023-02-12T17:24:54.130Z,64.72
2023-02-12T17:27:22.487Z,69.57
2023-02-12T17:29:50.575Z,67.40
2023-02-12T17:32:19.276Z,65.57
2023-02-12T17:34:49.142Z,63.22
2023-02-12T17:37:22.576Z,70.93
2023-02-12T17:39:50.807Z,69.95
2023-02-12T17:42:19.126Z,68.55
2023-02-12T17:44:47.782Z,69.47
2023-02-12T17:47:18.430Z,78.50
2023-02-12T17:49:46.302Z,70.85
2023-02-12T17:52:15.762Z,70.65
2023-02-12T17:54:47.051Z,65.43
2023-02-12T17:57:16.221Z,69.50
2023-02-12T17:59:46.233Z,79.25
2023-02-12T18:02:15.093Z,69.90
2023-02-12T18:04:44.359Z,71.10
2023-02-12T18:07:12.685Z,74.75
2023-02-12T18:09:40.198Z,73.80
2023-02-12T18:12:08.164Z,71.05
2023-02-12T18:14:37.626Z,72.68
2023-02-12T18:17:07.285Z,75.57
2023-02-12T18:19:35.753Z,70.55
2023-02-12T18:22:02.898Z,84.95
2023-02-12T18:24:31.725Z,69.78
2023-02-12T18:27:01.591Z,78.18
2023-02-12T18:29:28.569Z,69.20
2023-02-12T18:31:57.226Z,76.68
2023-02-12T18:34:27.324Z,68.50
2023-02-12T18:36:55.979Z,80.20
2023-02-12T18:39:25.779Z,73.85
2023-02-12T18:41:52.840Z,68.80
2023-02-12T18:44:21.363Z,69.85
2023-02-12T18:46:48.808Z,82.82
2023-02-12T18:49:17.078Z,75.75
2023-02-12T18:51:45.085Z,94.97
2023-02-12T18:54:13.785Z,94.32
2023-02-12T18:56:44.289Z,81.82
2023-02-12T18:59:14.125Z,69.53
2023-02-12T19:01:42.046Z,75.80
2023-02-12T19:04:12.908Z,74.75
2023-02-12T19:06:44.446Z,70.15
2023-02-12T19:09:16.853Z,69.25
2023-02-12T19:11:47.203Z,71.82
2023-02-12T19:14:16.471Z,71.00
2023-02-12T19:16:45.384Z,75.25
2023-02-12T19:19:14.488Z,74.05
2023-02-12T19:21:42.876Z,68.88
2023-02-12T19:24:12.560Z,80.45
2023-02-12T19:26:40.560Z,75.80
2023-02-12T19:29:08.288Z,69.22
2023-02-12T19:31:38.120Z,73.35
2023-02-12T19:34:09.041Z,62.83
2023-02-12T19:36:37.725Z,72.22
2023-02-12T19:39:06.644Z,71.78
2023-02-12T19:41:42.739Z,71.30
2023-02-12T19:44:13.305Z,80.47
2023-02-12T19:46:42.209Z,75.90
2023-02-12T19:49:15.233Z,74.47
2023-02-12T19:51:44.065Z,80.95
2023-02-12T19:54:13.774Z,77.10
2023-02-12T19:56:42.573Z,75.40
2023-02-12T19:59:13.064Z,84.90
2023-02-12T20:01:41.023Z,76.70
2023-02-12T20:04:09.546Z,84.68
2023-02-12T20:06:39.663Z,82.68
2023-02-12T20:09:09.396Z,72.72
2023-02-12T20:11:38.946Z,77.32
2023-02-12T20:14:09.843Z,89.75
2023-02-12T20:16:43.806Z,81.50
2023-02-12T20:19:15.672Z,80.45
2023-02-12T20:21:45.685Z,73.93
2023-02-12T20:24:14.561Z,71.35
2023-02-12T20:26:42.017Z,85.93
2023-02-12T20:29:10.806Z,78.22
2023-02-12T20:31:38.917Z,83.00
2023-02-12T20:34:10.786Z,77.68
2023-02-12T20:36:40.276Z,72.13
2023-02-12T20:39:11.171Z,85.18
2023-02-12T20:41:39.434Z,82.20
2023-02-12T20:44:12.211Z,83.65
2023-02-12T20:46:42.401Z,89.55
2023-02-12T20:49:12.820Z,68.47
2023-02-12T20:51:40.876Z,84.15
2023-02-12T20:54:09.191Z,79.53
2023-02-12T20:56:38.427Z,71.47
2023-02-12T20:59:08.981Z,85.55
2023-02-12T21:01:39.765Z,80.95
2023-02-12T21:04:12.352Z,72.63
2023-02-12T21:06:42.873Z,81.28
2023-02-12T21:09:13.689Z,87.60
2023-02-12T21:11:46.064Z,88.30
2023-02-12T21:14:22.366Z,84.88
2023-02-12T21:16:54.659Z,85.65
2023-02-12T21:19:24.151Z,80.35
2023-02-12T21:21:54.730Z,75.82
2023-02-12T21:24:26.194Z,93.43
2023-02-12T21:26:56.302Z,98.10
2023-02-12T21:29:28.324Z,91.38
2023-02-12T21:31:56.502Z,100.13
2023-02-12T21:34:26.234Z,83.68
2023-02-12T21:36:56.326Z,96.07
2023-02-12T21:39:29.308Z,99.63
2023-02-12T21:42:01.705Z,93.63
2023-02-12T21:44:30.614Z,102.63
2023-02-12T21:46:59.540Z,111.63
2023-02-12T21:49:28.544Z,110.50
2023-02-12T21:51:58.509Z,101.40
2023-02-12T21:54:29.064Z,125.50
2023-02-12T21:56:58.047Z,143.75
2023-02-12T21:59:26.892Z,121.18
2023-02-12T22:01:59.290Z,130.93
2023-02-12T22:04:29.444Z,116.35
2023-02-12T22:06:58.254Z,105.15
2023-02-12T22:09:27.133Z,130.50
2023-02-12T22:11:56.205Z,124.68
2023-02-12T22:14:25.665Z,112.05
2023-02-12T22:16:53.403Z,121.07
2023-02-12T22:19:21.662Z,99.72
2023-02-12T22:21:52.155Z,118.40
2023-02-12T22:24:20.788Z,150.45
2023-02-12T22:26:49.199Z,105.72
2023-02-12T22:29:18.919Z,138.15
2023-02-12T22:31:48.331Z,123.03
2023-02-12T22:34:20.275Z,174.68
2023-02-12T22:36:49.508Z,121.97
2023-02-12T22:39:19.282Z,191.85
2023-02-12T22:41:46.473Z,155.45
2023-02-12T22:44:15.826Z,108.72
2023-02-12T22:46:45.007Z,173.23
2023-02-12T22:49:13.902Z,95.20
2023-02-12T22:51:41.976Z,139.50
2023-02-12T22:54:14.855Z,172.23
2023-02-12T22:56:43.257Z,94.20
2023-02-12T22:59:12.145Z,205.75
2023-02-12T23:01:41.265Z,136.63
2023-02-12T23:04:12.636Z,110.15
2023-02-12T23:06:39.576Z,101.65
2023-02-12T23:09:07.444Z,133.60
2023-02-12T23:11:35.099Z,167.85
2023-02-12T23:14:03.899Z,109.95
2023-02-12T23:16:33.184Z,155.70
2023-02-12T23:19:02.593Z,166.13
2023-02-12T23:21:33.652Z,117.43
2023-02-12T23:24:02.027Z,102.95
2023-02-12T23:26:31.551Z,146.85
2023-02-12T23:29:01.010Z,83.38
2023-02-12T23:31:28.709Z,101.05
2023-02-12T23:33:55.706Z,143.30
2023-02-12T23:36:24.906Z,109.07
2023-02-12T23:38:52.374Z,176.75
2023-02-12T23:41:19.968Z,97.78
2023-02-12T23:43:48.468Z,172.30
2023-02-12T23:46:18.116Z,211.00
2023-02-12T23:48:46.202Z,163.95
2023-02-12T23:51:14.656Z,151.25
2023-02-12T23:53:41.490Z,79.85
2023-02-12T23:56:10.665Z,105.72
2023-02-12T23:58:38.243Z,200.77
